Time;durP1;ratioP1;P1;durP2;ratioP2;P2;SDS_P1;SDS_P2;PMS_P1;PMS_P2;Temp;Humidity;BMP_temperature;BMP_pressure;BME280_temperature;BME280_humidity;BME280_pressure;Samples;Min_cycle;Max_cycle;Signal;HPM_P1;HPM_P2
2022/10/09 00:01:40;;;;;;;;;;;;;;;13.77;100.00;98816.84;5078082;28;19924;-70
2022/10/09 00:04:06;;;;;;;;;;;;;;;13.79;100.00;98819.28;5075706;28;19924;-70
2022/10/09 00:06:34;;;;;;;;;;;;;;;13.75;100.00;98820.88;5073244;28;19944;-70
2022/10/09 00:09:01;;;;;;;;;;;;;;;13.75;100.00;98827.06;5076142;28;19925;-70
2022/10/09 00:11:28;;;;;;;;;;;;;;;13.74;100.00;98817.38;5077731;28;19929;-70
2022/10/09 00:13:55;;;;;;;;;;;;;;;13.70;100.00;98816.31;5077611;28;19924;-71
2022/10/09 00:16:24;;;;;;;;;;;;;;;13.69;100.00;98814.69;5075283;28;19929;-70
2022/10/09 00:18:50;;;;;;;;;;;;;;;13.47;100.00;98822.88;5074617;28;19925;-70
2022/10/09 00:21:18;;;;;;;;;;;;;;;13.43;100.00;98815.63;5077966;28;20017;-71
2022/10/09 00:23:45;;;;;;;;;;;;;;;13.29;100.00;98825.16;5078091;28;20258;-70
2022/10/09 00:26:11;;;;;;;;;;;;;;;13.37;100.00;98816.63;5074825;28;19924;-71
2022/10/09 00:28:38;;;;;;;;;;;;;;;13.42;100.00;98824.72;5073981;28;20370;-70
2022/10/09 00:31:05;;;;;;;;;;;;;;;13.47;100.00;98822.88;5076094;28;19924;-69
2022/10/09 00:33:32;;;;;;;;;;;;;;;13.50;100.00;98816.19;5092660;28;19924;-70
2022/10/09 00:36:01;;;;;;;;;;;;;;;13.53;100.00;98818.34;5076034;28;19984;-70
2022/10/09 00:38:28;;;;;;;;;;;;;;;13.53;100.00;98818.34;5073942;28;20025;-70
2022/10/09 00:40:54;;;;;;;;;;;;;;;13.55;100.00;98818.91;5074585;28;19935;-69
2022/10/09 00:43:35;;;;;;;;;;;;;;;13.53;100.00;98812.97;5077366;28;19991;-70
2022/10/09 00:46:02;;;;;;;;;;;;;;;13.55;100.00;98818.91;5075412;28;20038;-70
2022/10/09 00:48:28;;;;;;;;;;;;;;;13.50;100.00;98816.97;5073990;28;20000;-70
2022/10/09 00:50:58;;;;;;;;;;;;;;;13.50;100.00;98811.63;5074486;28;19925;-70
2022/10/09 00:53:26;;;;;;;;;;;;;;;13.49;100.00;98806.53;5077386;28;19924;-70
2022/10/09 00:55:53;;;;;;;;;;;;;;;13.43;100.00;98811.03;5076485;28;19928;-69
2022/10/09 00:58:19;;;;;;;;;;;;;;;13.43;100.00;98807.56;5074091;28;19925;-71
2022/10/09 01:00:46;;;;;;;;;;;;;;;13.43;100.00;98810.25;5072155;28;19935;-70
2022/10/09 01:03:12;;;;;;;;;;;;;;;13.40;100.00;98808.88;5075886;28;19951;-69
2022/10/09 01:05:43;;;;;;;;;;;;;;;13.40;100.00;98816.13;5077150;28;20008;-70
2022/10/09 01:08:14;;;;;;;;;;;;;;;13.39;100.00;98809.94;5074332;28;19992;-70
2022/10/09 01:10:47;;;;;;;;;;;;;;;13.41;100.00;98801.63;5074002;28;19924;-70
2022/10/09 01:13:18;;;;;;;;;;;;;;;13.34;100.00;98806.41;5077167;28;20004;-70
2022/10/09 01:15:49;;;;;;;;;;;;;;;13.34;100.00;98801.03;5077468;28;19971;-69
2022/10/09 01:18:22;;;;;;;;;;;;;;;13.35;100.00;98803.47;5065349;28;19996;-70
2022/10/09 01:20:52;;;;;;;;;;;;;;;13.35;100.00;98794.63;5073659;28;19992;-70
2022/10/09 01:23:38;;;;;;;;;;;;;;;13.35;100.00;98799.97;5063491;28;19925;-70
2022/10/09 01:26:11;;;;;;;;;;;;;;;13.33;100.00;98794.91;5073017;28;19980;-70
2022/10/09 01:28:41;;;;;;;;;;;;;;;13.30;100.00;98800.78;5073260;28;19925;-69
2022/10/09 01:31:07;;;;;;;;;;;;;;;13.27;100.00;98789.75;5074318;28;19998;-70
2022/10/09 01:33:34;;;;;;;;;;;;;;;13.25;100.00;98781.13;5074996;28;19936;-70
2022/10/09 01:36:01;;;;;;;;;;;;;;;13.26;100.00;98791.63;5074688;28;19988;-69
2022/10/09 01:38:28;;;;;;;;;;;;;;;13.24;100.00;98791.09;5072812;28;20433;-69
2022/10/09 01:40:54;;;;;;;;;;;;;;;13.20;100.00;98791.84;5073773;28;19924;-71
2022/10/09 01:43:21;;;;;;;;;;;;;;;13.16;100.00;98777.31;5076385;28;19952;-70
2022/10/09 01:45:49;;;;;;;;;;;;;;;13.13;100.00;98783.19;5076219;28;19931;-70
2022/10/09 01:48:17;;;;;;;;;;;;;;;13.14;100.00;98776.78;5064906;28;20024;-70
2022/10/09 01:50:45;;;;;;;;;;;;;;;13.13;100.00;98777.84;5072599;28;19924;-69
2022/10/09 01:53:13;;;;;;;;;;;;;;;13.14;100.00;98779.47;5075882;28;19996;-69
2022/10/09 01:55:44;;;;;;;;;;;;;;;13.12;100.00;98776.25;5075961;28;19979;-70
2022/10/09 01:58:14;;;;;;;;;;;;;;;13.12;100.00;98778.94;5072707;28;19956;-69
2022/10/09 02:00:43;;;;;;;;;;;;;;;13.10;100.00;98778.34;5072351;28;19968;-70
2022/10/09 02:03:12;;;;;;;;;;;;;;;13.11;100.00;98777.31;5075467;28;19956;-69
2022/10/09 02:05:40;;;;;;;;;;;;;;;13.10;100.00;98773.81;5091718;28;19925;-70
2022/10/09 02:08:08;;;;;;;;;;;;;;;13.09;100.00;98768.72;5073734;28;19984;-69
2022/10/09 02:10:34;;;;;;;;;;;;;;;13.11;100.00;98769.25;5072625;28;20059;-70
2022/10/09 02:13:01;;;;;;;;;;;;;;;13.08;100.00;98767.06;5074319;28;19980;-70
2022/10/09 02:15:31;;;;;;;;;;;;;;;12.98;100.00;98765.91;5095052;28;19931;-70
2022/10/09 02:18:02;;;;;;;;;;;;;;;12.98;100.00;98759.75;5079159;28;20034;-70
2022/10/09 02:20:32;;;;;;;;;;;;;;;12.94;100.00;98766.69;5076694;28;19929;-70
2022/10/09 02:23:00;;;;;;;;;;;;;;;12.93;100.00;98760.53;5077775;28;20131;-70
2022/10/09 02:25:26;;;;;;;;;;;;;;;12.85;100.00;98752.94;5078460;28;20015;-70
2022/10/09 02:27:53;;;;;;;;;;;;;;;12.77;100.00;98764.16;5079689;28;19979;-70
2022/10/09 02:30:20;;;;;;;;;;;;;;;12.68;100.00;98756.84;5076329;28;19974;-70
2022/10/09 02:32:51;;;;;;;;;;;;;;;12.66;100.00;98751.72;5076099;28;19925;-70
2022/10/09 02:35:17;;;;;;;;;;;;;;;12.71;100.00;98754.47;5068558;28;19992;-70
2022/10/09 02:37:45;;;;;;;;;;;;;;;12.78;100.00;98754.25;5076281;28;19933;-70
2022/10/09 02:40:11;;;;;;;;;;;;;;;12.80;100.00;98752.09;5079040;28;19931;-70
2022/10/09 02:42:37;;;;;;;;;;;;;;;12.80;100.00;98752.94;5079756;28;19956;-70
2022/10/09 02:45:04;;;;;;;;;;;;;;;12.82;100.00;98749.97;5077651;28;19967;-70
2022/10/09 02:47:30;;;;;;;;;;;;;;;12.80;100.00;98746.75;5076053;28;19925;-69
2022/10/09 02:49:57;;;;;;;;;;;;;;;12.80;100.00;98752.94;5077124;28;20410;-70
2022/10/09 02:52:23;;;;;;;;;;;;;;;12.81;100.00;98746.47;5076923;28;20004;-70
2022/10/09 02:54:51;;;;;;;;;;;;;;;12.80;100.00;98749.44;5076045;28;19924;-70
2022/10/09 02:57:17;;;;;;;;;;;;;;;12.74;100.00;98750.47;5094905;28;19986;-70
2022/10/09 02:59:43;;;;;;;;;;;;;;;12.42;100.00;98751.25;5079509;28;19949;-70
2022/10/09 03:02:10;;;;;;;;;;;;;;;11.99;100.00;98753.22;5076682;28;20008;-70
2022/10/09 03:04:36;;;;;;;;;;;;;;;11.78;100.00;98746.84;5076023;28;19952;-70
2022/10/09 03:07:02;;;;;;;;;;;;;;;11.88;100.00;98749.63;5077511;28;20011;-70
2022/10/09 03:09:28;;;;;;;;;;;;;;;12.20;100.00;98753.19;5079022;28;19978;-70
2022/10/09 03:11:57;;;;;;;;;;;;;;;12.23;100.00;98749.19;5093543;28;19932;-69
2022/10/09 03:14:23;;;;;;;;;;;;;;;12.31;100.00;98743.38;5075711;28;19924;-70
2022/10/09 03:16:51;;;;;;;;;;;;;;;12.44;100.00;98742.94;5075238;28;21301;-69
2022/10/09 03:19:17;;;;;;;;;;;;;;;12.01;100.00;98745.75;5078957;28;19988;-69
2022/10/09 03:21:44;;;;;;;;;;;;;;;12.20;100.00;98752.38;5079000;28;20019;-69
2022/10/09 03:24:10;;;;;;;;;;;;;;;12.09;100.00;98746.13;5091523;28;19925;-69
2022/10/09 03:26:37;;;;;;;;;;;;;;;11.88;100.00;98739.72;5075214;28;20402;-69
2022/10/09 03:29:04;;;;;;;;;;;;;;;12.00;100.00;98750.31;5075400;28;19955;-69
2022/10/09 03:31:31;;;;;;;;;;;;;;;12.16;100.00;98745.91;5093876;28;19988;-69
2022/10/09 03:33:57;;;;;;;;;;;;;;;12.31;100.00;98749.56;5077234;28;19959;-70
2022/10/09 03:36:23;;;;;;;;;;;;;;;12.38;100.00;98752.00;5074631;28;20004;-70
2022/10/09 03:38:50;;;;;;;;;;;;;;;12.36;100.00;98746.09;5074731;28;19952;-69
2022/10/09 03:41:16;;;;;;;;;;;;;;;12.33;100.00;98750.09;5077903;28;19984;-69
2022/10/09 03:43:42;;;;;;;;;;;;;;;12.30;100.00;98745.25;5076899;28;19924;-69
2022/10/09 03:46:10;;;;;;;;;;;;;;;12.27;100.00;98747.63;5075271;28;20374;-70
2022/10/09 03:48:37;;;;;;;;;;;;;;;12.31;100.00;98746.88;5074741;28;20031;-70
2022/10/09 03:51:03;;;;;;;;;;;;;;;12.31;100.00;98751.44;5076834;28;19925;-70
2022/10/09 03:53:30;;;;;;;;;;;;;;;12.19;100.00;98746.19;5077805;28;19980;-70
2022/10/09 03:55:56;;;;;;;;;;;;;;;12.22;100.00;98740.38;5076833;28;19924;-70
2022/10/09 03:58:22;;;;;;;;;;;;;;;12.11;100.00;98740.50;5074081;28;20000;-69
2022/10/09 04:00:49;;;;;;;;;;;;;;;11.85;100.00;98744.78;5074372;28;20250;-70
2022/10/09 04:03:17;;;;;;;;;;;;;;;11.97;100.00;98747.31;5064831;28;19962;-70
2022/10/09 04:05:43;;;;;;;;;;;;;;;12.06;100.00;98740.47;5072903;28;19988;-70
2022/10/09 04:08:10;;;;;;;;;;;;;;;12.03;100.00;98743.63;5076919;28;20016;-70
2022/10/09 04:10:37;;;;;;;;;;;;;;;11.93;100.00;98744.34;5076063;28;19928;-70
2022/10/09 04:13:03;;;;;;;;;;;;;;;11.96;100.00;98735.81;5075574;28;19984;-70
2022/10/09 04:15:29;;;;;;;;;;;;;;;11.83;100.00;98741.53;5073958;28;19932;-68
2022/10/09 04:17:56;;;;;;;;;;;;;;;11.79;100.00;98749.25;5073716;28;19964;-69
2022/10/09 04:20:23;;;;;;;;;;;;;;;11.97;100.00;98741.97;5077566;28;19951;-70
2022/10/09 04:22:50;;;;;;;;;;;;;;;11.86;100.00;98741.84;5070797;28;19987;-70
2022/10/09 04:25:16;;;;;;;;;;;;;;;11.94;100.00;98748.63;5077344;28;20003;-70
2022/10/09 04:27:43;;;;;;;;;;;;;;;11.92;100.00;98748.06;5077135;28;20222;-70
2022/10/09 04:30:09;;;;;;;;;;;;;;;11.87;100.00;98751.50;5074400;28;19935;-69
2022/10/09 04:32:36;;;;;;;;;;;;;;;11.96;100.00;98751.03;5089123;28;19967;-69
2022/10/09 04:35:02;;;;;;;;;;;;;;;11.88;100.00;98750.41;5074172;28;19924;-69
2022/10/09 04:37:30;;;;;;;;;;;;;;;11.97;100.00;98752.69;5076997;28;20047;-69
2022/10/09 04:39:56;;;;;;;;;;;;;;;11.29;100.00;98745.94;5076216;28;19936;-69
2022/10/09 04:42:22;;;;;;;;;;;;;;;10.76;100.00;98757.97;5073805;28;20277;-69
2022/10/09 04:44:49;;;;;;;;;;;;;;;10.25;100.00;98766.16;5072344;28;19931;-69
2022/10/09 04:47:16;;;;;;;;;;;;;;;11.05;100.00;98747.97;5065226;28;19928;-69
2022/10/09 04:49:42;;;;;;;;;;;;;;;11.42;100.00;98750.91;5073416;28;20032;-69
2022/10/09 04:52:09;;;;;;;;;;;;;;;11.64;100.00;98753.56;5073460;28;19925;-69
2022/10/09 04:54:36;;;;;;;;;;;;;;;11.37;100.00;98746.31;5073541;28;20008;-69
2022/10/09 04:57:03;;;;;;;;;;;;;;;11.54;100.00;98746.25;5075160;28;19960;-69
2022/10/09 04:59:29;;;;;;;;;;;;;;;11.60;100.00;98745.28;5076681;28;19989;-70
2022/10/09 05:01:55;;;;;;;;;;;;;;;11.64;100.00;98740.19;5075887;28;19924;-70
2022/10/09 05:04:22;;;;;;;;;;;;;;;11.70;100.00;98742.72;5073506;28;19925;-70
2022/10/09 05:06:48;;;;;;;;;;;;;;;11.71;100.00;98743.53;5073236;28;19925;-70
2022/10/09 05:09:14;;;;;;;;;;;;;;;11.66;100.00;98752.28;5076347;28;19931;-70
2022/10/09 05:11:42;;;;;;;;;;;;;;;11.58;100.00;98750.03;5076457;28;19925;-70
2022/10/09 05:14:08;;;;;;;;;;;;;;;11.54;100.00;98759.63;5073926;28;20349;-70
2022/10/09 05:16:35;;;;;;;;;;;;;;;11.48;100.00;98754.47;5073056;28;20000;-70
2022/10/09 05:19:01;;;;;;;;;;;;;;;11.59;100.00;98759.69;5074628;28;19996;-70
2022/10/09 05:21:28;;;;;;;;;;;;;;;11.58;100.00;98755.38;5076325;28;19934;-69
2022/10/09 05:23:54;;;;;;;;;;;;;;;11.72;100.00;98745.97;5090753;28;19952;-69
2022/10/09 05:26:22;;;;;;;;;;;;;;;11.47;100.00;98755.50;5072852;28;19931;-70
2022/10/09 05:28:50;;;;;;;;;;;;;;;11.68;100.00;98766.22;5072574;28;20005;-70
2022/10/09 05:31:17;;;;;;;;;;;;;;;11.67;100.00;98766.47;5064343;28;19997;-69
2022/10/09 05:33:44;;;;;;;;;;;;;;;11.62;100.00;98763.72;5072790;28;19928;-69
2022/10/09 05:36:10;;;;;;;;;;;;;;;11.33;100.00;98763.06;5075547;28;20017;-70
2022/10/09 05:38:36;;;;;;;;;;;;;;;11.55;100.00;98763.91;5076351;28;19931;-69
2022/10/09 05:41:03;;;;;;;;;;;;;;;11.71;100.00;98765.75;5074349;28;19960;-69
2022/10/09 05:43:31;;;;;;;;;;;;;;;11.75;100.00;98764.22;5072700;28;19925;-70
2022/10/09 05:46:06;;;;;;;;;;;;;;;11.87;100.00;98764.06;5073733;28;19988;-69
2022/10/09 05:48:32;;;;;;;;;;;;;;;11.63;100.00;98768.84;5075680;28;20470;-70
2022/10/09 05:51:05;;;;;;;;;;;;;;;11.81;100.00;98770.44;5074191;28;19956;-69
2022/10/09 05:53:31;;;;;;;;;;;;;;;11.81;100.00;98771.25;5071774;28;19955;-69
2022/10/09 05:55:58;;;;;;;;;;;;;;;11.52;100.00;98777.78;5073853;28;19991;-69
2022/10/09 05:58:24;;;;;;;;;;;;;;;11.24;100.00;98770.72;5071569;28;20537;-70
2022/10/09 06:00:50;;;;;;;;;;;;;;;10.89;100.00;98782.75;5073014;28;20045;-69
2022/10/09 06:03:18;;;;;;;;;;;;;;;10.72;100.00;98786.22;5076068;28;19931;-69
2022/10/09 06:05:44;;;;;;;;;;;;;;;10.23;100.00;98784.31;5076070;28;19925;-70
2022/10/09 06:08:11;;;;;;;;;;;;;;;10.53;100.00;98779.50;5073140;28;20015;-69
2022/10/09 06:10:37;;;;;;;;;;;;;;;10.76;100.00;98784.72;5072486;28;20008;-70
2022/10/09 06:13:03;;;;;;;;;;;;;;;10.60;100.00;98780.16;5074308;28;19985;-69
2022/10/09 06:15:30;;;;;;;;;;;;;;;10.35;100.00;98785.06;5075913;28;19925;-69
2022/10/09 06:17:56;;;;;;;;;;;;;;;10.32;100.00;98790.06;5074839;28;19939;-69
2022/10/09 06:20:24;;;;;;;;;;;;;;;10.32;100.00;98787.38;5072330;28;19924;-69
2022/10/09 06:22:51;;;;;;;;;;;;;;;10.61;100.00;98784.47;5072109;28;20019;-69
2022/10/09 06:25:17;;;;;;;;;;;;;;;10.95;100.00;98795.16;5074216;28;19963;-70
2022/10/09 06:27:43;;;;;;;;;;;;;;;11.11;100.00;98791.66;5075755;28;19924;-70
2022/10/09 06:30:10;;;;;;;;;;;;;;;11.10;100.00;98790.03;5072837;28;19929;-69
2022/10/09 06:32:37;;;;;;;;;;;;;;;11.04;100.00;98794.50;5072515;28;19992;-70
2022/10/09 06:35:03;;;;;;;;;;;;;;;10.92;100.00;98788.44;5074531;28;20680;-70
2022/10/09 06:37:31;;;;;;;;;;;;;;;10.66;100.00;98789.88;5075876;28;19983;-68
2022/10/09 06:39:57;;;;;;;;;;;;;;;10.84;100.00;98791.50;5074581;28;19977;-69
2022/10/09 06:42:23;;;;;;;;;;;;;;;10.94;100.00;98793.50;5072229;28;19932;-69
2022/10/09 06:44:50;;;;;;;;;;;;;;;11.32;100.00;98791.72;5072350;28;19947;-70
2022/10/09 06:47:16;;;;;;;;;;;;;;;11.51;100.00;98794.09;5075674;28;20279;-69
2022/10/09 06:49:42;;;;;;;;;;;;;;;11.59;100.00;98791.78;5075688;28;20015;-69
2022/10/09 06:52:09;;;;;;;;;;;;;;;11.68;100.00;98792.97;5072928;28;19925;-70
2022/10/09 06:54:36;;;;;;;;;;;;;;;11.58;100.00;98795.53;5072497;28;19952;-68
2022/10/09 06:57:03;;;;;;;;;;;;;;;11.74;100.00;98802.72;5074491;28;19925;-70
2022/10/09 06:59:29;;;;;;;;;;;;;;;11.62;100.00;98802.00;5077097;28;19955;-70
2022/10/09 07:01:56;;;;;;;;;;;;;;;11.69;100.00;98799.97;5077848;28;19924;-69
2022/10/09 07:04:23;;;;;;;;;;;;;;;11.60;100.00;98796.09;5076299;28;19925;-70
2022/10/09 07:06:49;;;;;;;;;;;;;;;11.71;100.00;98807.75;5076291;28;19982;-70
2022/10/09 07:09:16;;;;;;;;;;;;;;;11.76;100.00;98807.84;5067844;28;19970;-70
2022/10/09 07:11:45;;;;;;;;;;;;;;;11.63;100.00;98810.84;5075474;28;19925;-70
2022/10/09 07:14:12;;;;;;;;;;;;;;;11.40;100.00;98811.84;5078580;28;19962;-69
2022/10/09 07:16:39;;;;;;;;;;;;;;;11.33;100.00;98821.91;5078848;28;19988;-70
2022/10/09 07:19:07;;;;;;;;;;;;;;;11.14;100.00;98815.22;5076428;28;20019;-70
2022/10/09 07:21:34;;;;;;;;;;;;;;;11.15;100.00;98806.94;5075243;28;20034;-70
2022/10/09 07:24:00;;;;;;;;;;;;;;;11.35;100.00;98804.59;5075803;28;19925;-70
2022/10/09 07:26:27;;;;;;;;;;;;;;;11.22;100.00;98812.94;5075479;28;19935;-69
2022/10/09 07:28:55;;;;;;;;;;;;;;;11.44;100.00;98807.66;5075645;28;19928;-69
2022/10/09 07:31:22;;;;;;;;;;;;;;;11.56;100.00;98805.66;5078904;28;19955;-70
2022/10/09 07:33:49;;;;;;;;;;;;;;;11.50;100.00;98795.16;5078891;28;19928;-70
2022/10/09 07:36:16;;;;;;;;;;;;;;;11.70;100.00;98795.44;5067036;28;19964;-70
2022/10/09 07:38:43;;;;;;;;;;;;;;;11.79;100.00;98788.63;5075084;28;19932;-69
2022/10/09 07:41:10;;;;;;;;;;;;;;;11.58;100.00;98790.16;5077670;28;19956;-69
2022/10/09 07:43:37;;;;;;;;;;;;;;;11.42;100.00;98792.91;5078517;28;20544;-70
2022/10/09 07:46:06;;;;;;;;;;;;;;;11.21;100.00;98797.94;5075174;28;19924;-69
2022/10/09 07:48:33;;;;;;;;;;;;;;;10.81;100.00;98791.97;5075510;28;19925;-70
2022/10/09 07:51:06;;;;;;;;;;;;;;;10.58;100.00;98800.16;5075639;28;19967;-70
2022/10/09 07:53:32;;;;;;;;;;;;;;;11.01;100.00;98794.16;5077757;28;20365;-70
2022/10/09 07:55:59;;;;;;;;;;;;;;;11.12;100.00;98790.59;5077763;28;20011;-69
2022/10/09 07:58:25;;;;;;;;;;;;;;;11.44;100.00;98782.75;5075410;28;19988;-70
2022/10/09 08:00:51;;;;;;;;;;;;;;;11.71;100.00;98786.34;5075541;28;19980;-69
2022/10/09 08:03:19;;;;;;;;;;;;;;;11.86;100.00;98790.03;5077576;28;20010;-71
2022/10/09 08:05:53;;;;;;;;;;;;;;;11.75;100.00;98788.28;5078512;28;19928;-70
2022/10/09 08:08:19;;;;;;;;;;;;;;;11.82;100.00;98777.41;5067367;28;20310;-70
2022/10/09 08:10:45;;;;;;;;;;;;;;;12.01;100.00;98793.94;5074087;28;20000;-70
2022/10/09 08:13:12;;;;;;;;;;;;;;;12.16;100.00;98784.19;5076002;28;19948;-71
2022/10/09 08:15:40;;;;;;;;;;;;;;;12.27;100.00;98795.84;5078815;28;19988;-70
2022/10/09 08:18:06;;;;;;;;;;;;;;;11.72;100.00;98791.47;5076912;28;19924;-70
2022/10/09 08:20:34;;;;;;;;;;;;;;;11.71;100.00;98787.16;5075160;28;19935;-70
2022/10/09 08:23:00;;;;;;;;;;;;;;;11.78;100.00;98793.16;5075061;28;19981;-70
2022/10/09 08:25:27;;;;;;;;;;;;;;;11.75;100.00;98793.66;5078606;28;19940;-70
2022/10/09 08:27:53;;;;;;;;;;;;;;;11.56;100.00;98786.94;5078291;28;19924;-70
2022/10/09 08:30:19;;;;;;;;;;;;;;;11.76;100.00;98795.25;5074594;28;19980;-70
2022/10/09 08:32:46;;;;;;;;;;;;;;;11.66;100.00;98795.09;5074404;28;19964;-70
2022/10/09 08:35:12;;;;;;;;;;;;;;;11.50;100.00;98792.47;5077564;28;19959;-70
2022/10/09 08:37:40;;;;;;;;;;;;;;;11.68;100.00;98790.31;5077896;28;19924;-70
2022/10/09 08:40:07;;;;;;;;;;;;;;;11.79;100.00;98789.41;5091256;28;19971;-70
2022/10/09 08:42:38;;;;;;;;;;;;;;;11.48;100.00;98786.56;5074328;28;19925;-70
2022/10/09 08:45:05;;;;;;;;;;;;;;;11.55;100.00;98782.63;5076434;28;19931;-70
2022/10/09 08:47:36;;;;;;;;;;;;;;;11.59;100.00;98781.09;5077696;28;19936;-70
2022/10/09 08:50:08;;;;;;;;;;;;;;;11.85;100.00;98780.38;5075846;28;20508;-70
2022/10/09 08:52:37;;;;;;;;;;;;;;;12.10;100.00;98784.41;5089724;28;19973;-70
2022/10/09 08:55:08;;;;;;;;;;;;;;;12.22;100.00;98780.53;5076051;28;19984;-70
2022/10/09 08:57:34;;;;;;;;;;;;;;;12.23;100.00;98784.00;5077986;28;19988;-70
2022/10/09 09:00:01;;;;;;;;;;;;;;;12.16;100.00;98783.41;5076220;28;19959;-70
2022/10/09 09:02:32;;;;;;;;;;;;;;;11.85;100.00;98783.03;5074211;28;19928;-70
2022/10/09 09:05:03;;;;;;;;;;;;;;;11.54;100.00;98790.94;5075254;28;19929;-70
2022/10/09 09:07:34;;;;;;;;;;;;;;;11.65;100.00;98771.25;5077369;28;19925;-71
2022/10/09 09:10:05;;;;;;;;;;;;;;;11.73;100.00;98766.31;5076046;28;19925;-69
2022/10/09 09:12:38;;;;;;;;;;;;;;;11.69;100.00;98773.19;5073631;28;20524;-70
2022/10/09 09:15:15;;;;;;;;;;;;;;;11.72;100.00;98764.72;5076132;28;20658;-70
2022/10/09 09:17:44;;;;;;;;;;;;;;;11.96;100.00;98753.72;5077333;28;20011;-70
2022/10/09 09:20:14;;;;;;;;;;;;;;;12.14;100.00;98758.72;5074234;28;19936;-70
2022/10/09 09:22:42;;;;;;;;;;;;;;;12.24;100.00;98761.53;5073930;28;19933;-70
2022/10/09 09:25:17;;;;;;;;;;;;;;;12.33;100.00;98755.47;5075849;28;20070;-70
2022/10/09 09:27:45;;;;;;;;;;;;;;;12.35;100.00;98763.22;5077027;28;20063;-71
2022/10/09 09:30:14;;;;;;;;;;;;;;;12.33;100.00;98757.31;5073071;28;20006;-70
2022/10/09 09:32:43;;;;;;;;;;;;;;;12.40;100.00;98757.94;5073807;28;19992;-70
2022/10/09 09:35:14;;;;;;;;;;;;;;;12.18;100.00;98754.50;5076167;28;19988;-70
2022/10/09 09:37:40;;;;;;;;;;;;;;;12.21;100.00;98748.63;5092334;28;20775;-71
2022/10/09 09:40:13;;;;;;;;;;;;;;;12.30;100.00;98741.75;5074691;28;19924;-71
2022/10/09 09:42:39;;;;;;;;;;;;;;;12.44;100.00;98735.72;5073055;28;19935;-70
2022/10/09 09:45:13;;;;;;;;;;;;;;;12.50;100.00;98735.78;5075277;28;19989;-70
2022/10/09 09:47:41;;;;;;;;;;;;;;;12.53;100.00;98730.72;5077009;28;19925;-70
2022/10/09 09:50:08;;;;;;;;;;;;;;;12.53;100.00;98733.41;5074522;28;20448;-71
2022/10/09 09:52:37;;;;;;;;;;;;;;;12.42;100.00;98729.00;5089187;28;20022;-70
2022/10/09 09:55:04;;;;;;;;;;;;;;;12.43;100.00;98728.78;5074126;28;19975;-70
2022/10/09 09:57:33;;;;;;;;;;;;;;;12.50;100.00;98725.06;5075489;28;19955;-70
2022/10/09 10:00:21;;;;;;;;;;;;;;;12.47;100.00;98730.94;5076454;28;19975;-70
2022/10/09 10:02:47;;;;;;;;;;;;;;;12.65;100.00;98723.31;5074090;28;19963;-69
2022/10/09 10:05:31;;;;;;;;;;;;;;;12.62;100.00;98729.19;5077322;28;19949;-70
2022/10/09 10:07:57;;;;;;;;;;;;;;;12.79;100.00;98721.81;5075161;28;19935;-70
2022/10/09 10:10:25;;;;;;;;;;;;;;;12.66;100.00;98726.78;5073939;28;19984;-70
2022/10/09 10:12:54;;;;;;;;;;;;;;;12.55;100.00;98714.38;5072574;28;19924;-70
2022/10/09 10:15:23;;;;;;;;;;;;;;;12.50;100.00;98717.84;5077324;28;19988;-70
2022/10/09 10:17:55;;;;;;;;;;;;;;;12.62;100.00;98713.13;5077070;28;19924;-70
2022/10/09 10:20:22;;;;;;;;;;;;;;;12.78;100.00;98706.78;5066481;28;19931;-70
2022/10/09 10:22:51;;;;;;;;;;;;;;;12.87;100.00;98699.88;5073903;28;19971;-70
2022/10/09 10:25:20;;;;;;;;;;;;;;;13.09;100.00;98696.31;5065803;28;19925;-71
2022/10/09 10:27:49;;;;;;;;;;;;;;;13.16;100.00;98696.84;5073846;28;19996;-71
2022/10/09 10:30:16;;;;;;;;;;;;;;;13.16;100.00;98699.53;5076996;28;19924;-71
2022/10/09 10:32:50;;;;;;;;;;;;;;;13.28;100.00;98686.72;5077285;28;19924;-71
2022/10/09 10:35:19;;;;;;;;;;;;;;;13.10;100.00;98684.50;5066780;28;19971;-70
2022/10/09 10:37:47;;;;;;;;;;;;;;;13.14;100.00;98683.72;5077776;28;19975;-70
2022/10/09 10:40:16;;;;;;;;;;;;;;;13.10;100.00;98685.31;5080660;28;19934;-70
2022/10/09 10:42:47;;;;;;;;;;;;;;;13.22;100.00;98674.34;5080965;28;19980;-70
2022/10/09 10:45:16;;;;;;;;;;;;;;;13.33;100.00;98682.22;5076173;28;19980;-70
2022/10/09 10:47:45;;;;;;;;;;;;;;;13.31;100.00;98675.47;5077513;28;19935;-70
2022/10/09 10:50:14;;;;;;;;;;;;;;;13.17;100.00;98682.41;5079805;28;19951;-71
2022/10/09 10:52:48;;;;;;;;;;;;;;;13.17;100.00;98675.16;5074860;28;19925;-69
2022/10/09 10:55:21;;;;;;;;;;;;;;;13.06;100.00;98678.81;5079809;28;20008;-70
2022/10/09 10:57:53;;;;;;;;;;;;;;;13.45;100.00;98674.75;5080360;28;20279;-75
2022/10/09 11:00:19;;;;;;;;;;;;;;;13.47;100.00;98666.41;5055273;28;19937;-74
2022/10/09 11:03:06;;;;;;;;;;;;;;;13.58;100.00;98664.59;5087704;28;19936;-70
2022/10/09 11:05:45;;;;;;;;;;;;;;;13.47;100.00;98658.38;5070573;28;19925;-71
2022/10/09 11:08:17;;;;;;;;;;;;;;;13.58;100.00;98657.34;5078923;28;19929;-71
2022/10/09 11:10:50;;;;;;;;;;;;;;;13.61;100.00;98654.13;5078464;28;19988;-71
2022/10/09 11:13:21;;;;;;;;;;;;;;;13.64;100.00;98658.16;5083381;28;19924;-70
2022/10/09 11:15:52;;;;;;;;;;;;;;;13.43;100.00;98655.41;5076151;28;20421;-70
2022/10/09 11:18:24;;;;;;;;;;;;;;;13.43;100.00;98649.25;5068563;28;19936;-69
2022/10/09 11:21:03;;;;;;;;;;;;;;;13.48;100.00;98642.03;5076157;28;19925;-71
2022/10/09 11:23:38;;;;;;;;;;;;;;;13.64;100.00;98642.06;5068879;28;19928;-69
2022/10/09 11:26:08;;;;;;;;;;;;;;;13.63;100.00;98643.94;5078150;28;19987;-70
2022/10/09 11:28:38;;;;;;;;;;;;;;;13.63;100.00;98637.75;5076450;28;19992;-70
2022/10/09 11:31:10;;;;;;;;;;;;;;;13.49;100.00;98642.84;5078641;28;20109;-71
2022/10/09 11:33:40;;;;;;;;;;;;;;;13.51;100.00;98629.94;5079275;28;19924;-70
2022/10/09 11:36:12;;;;;;;;;;;;;;;13.64;100.00;98628.66;5077473;28;19955;-69
2022/10/09 11:38:41;;;;;;;;;;;;;;;13.74;100.00;98632.13;5076160;28;19924;-70
2022/10/09 11:41:08;;;;;;;;;;;;;;;13.68;100.00;98622.47;5094246;28;19971;-70
2022/10/09 11:43:48;;;;;;;;;;;;;;;13.56;100.00;98624.59;5079379;28;19995;-70
2022/10/09 11:46:21;;;;;;;;;;;;;;;13.71;100.00;98603.16;5075573;28;20028;-70
2022/10/09 11:48:52;;;;;;;;;;;;;;;13.63;100.00;98611.72;5074136;28;19936;-70
2022/10/09 11:51:27;;;;;;;;;;;;;;;13.65;100.00;98601.53;5067887;28;19924;-71
2022/10/09 11:53:53;;;;;;;;;;;;;;;13.85;100.00;98604.25;5077294;28;19950;-70
2022/10/09 11:56:21;;;;;;;;;;;;;;;13.81;100.00;98605.03;5074751;28;19933;-70
2022/10/09 11:58:55;;;;;;;;;;;;;;;13.96;100.00;98600.50;5074459;28;20364;-70
2022/10/09 12:01:23;;;;;;;;;;;;;;;14.05;100.00;98587.31;5067971;28;19925;-71
2022/10/09 12:03:58;;;;;;;;;;;;;;;14.03;100.00;98590.28;5075647;28;19947;-70
2022/10/09 12:06:26;;;;;;;;;;;;;;;14.04;100.00;98583.88;5068477;28;19925;-71
2022/10/09 12:08:55;;;;;;;;;;;;;;;14.11;100.00;98580.09;5075036;28;19931;-71
2022/10/09 12:11:22;;;;;;;;;;;;;;;14.14;100.00;98582.25;5077758;28;19948;-71
2022/10/09 12:13:50;;;;;;;;;;;;;;;14.20;100.00;98578.47;5078188;28;19931;-71
2022/10/09 12:16:44;;;;;;;;;;;;;;;14.17;100.00;98557.53;5065231;28;19986;-71
2022/10/09 12:19:13;;;;;;;;;;;;;;;14.14;100.00;98566.13;5047247;28;19981;-70
2022/10/09 12:21:45;;;;;;;;;;;;;;;14.05;100.00;98566.66;5077876;28;19958;-70
2022/10/09 12:24:15;;;;;;;;;;;;;;;14.07;100.00;98564.53;5090278;28;19940;-70
2022/10/09 12:26:41;;;;;;;;;;;;;;;14.12;100.00;98562.88;5089592;28;19955;-70
2022/10/09 12:29:14;;;;;;;;;;;;;;;14.16;100.00;98553.22;5076812;28;19955;-70
2022/10/09 12:31:41;;;;;;;;;;;;;;;14.15;100.00;98549.72;5077302;28;19940;-71
2022/10/09 12:34:15;;;;;;;;;;;;;;;14.14;100.00;98547.31;5075165;28;19964;-69
2022/10/09 12:36:42;;;;;;;;;;;;;;;14.10;100.00;98552.44;5073882;28;19984;-70
2022/10/09 12:39:13;;;;;;;;;;;;;;;14.12;100.00;98544.09;5076464;28;19980;-69
2022/10/09 12:41:41;;;;;;;;;;;;;;;14.12;100.00;98531.47;5078510;28;19935;-70